sensor_id;sensor_type;location;lat;lon;timestamp;P1;durP1;ratioP1;P2;durP2;ratioP2
2618;SDS011;1319;52.346;13.096;2022-08-03T00:00:59;7.87;;;5.40;;
2618;SDS011;1319;52.346;13.096;2022-08-03T00:03:25;5.87;;;5.27;;
2618;SDS011;1319;52.346;13.096;2022-08-03T00:05:50;10.80;;;5.40;;
2618;SDS011;1319;52.346;13.096;2022-08-03T00:08:15;21.73;;;7.60;;
2618;SDS011;1319;52.346;13.096;2022-08-03T00:10:40;15.00;;;6.47;;
2618;SDS011;1319;52.346;13.096;2022-08-03T00:13:06;16.53;;;6.40;;
2618;SDS011;1319;52.346;13.096;2022-08-03T00:15:31;12.73;;;6.07;;
2618;SDS011;1319;52.346;13.096;2022-08-03T00:17:56;9.17;;;5.80;;
2618;SDS011;1319;52.346;13.096;2022-08-03T00:20:21;10.43;;;5.50;;
2618;SDS011;1319;52.346;13.096;2022-08-03T00:22:47;9.47;;;5.70;;
2618;SDS011;1319;52.346;13.096;2022-08-03T00:25:12;13.50;;;6.20;;
2618;SDS011;1319;52.346;13.096;2022-08-03T00:27:37;11.90;;;6.43;;
2618;SDS011;1319;52.346;13.096;2022-08-03T00:30:02;14.37;;;6.70;;
2618;SDS011;1319;52.346;13.096;2022-08-03T00:32:28;8.77;;;6.13;;
2618;SDS011;1319;52.346;13.096;2022-08-03T00:34:53;9.60;;;5.87;;
2618;SDS011;1319;52.346;13.096;2022-08-03T00:37:18;7.77;;;5.47;;
2618;SDS011;1319;52.346;13.096;2022-08-03T00:39:43;6.63;;;5.07;;
2618;SDS011;1319;52.346;13.096;2022-08-03T00:42:11;7.93;;;5.60;;
2618;SDS011;1319;52.346;13.096;2022-08-03T00:44:40;10.00;;;6.00;;
2618;SDS011;1319;52.346;13.096;2022-08-03T00:47:06;7.30;;;5.70;;
2618;SDS011;1319;52.346;13.096;2022-08-03T00:49:31;7.47;;;5.53;;
2618;SDS011;1319;52.346;13.096;2022-08-03T00:51:56;7.37;;;5.80;;
2618;SDS011;1319;52.346;13.096;2022-08-03T00:54:22;11.63;;;5.53;;
2618;SDS011;1319;52.346;13.096;2022-08-03T00:56:48;9.43;;;5.30;;
2618;SDS011;1319;52.346;13.096;2022-08-03T00:59:15;9.70;;;6.03;;
2618;SDS011;1319;52.346;13.096;2022-08-03T01:01:40;8.93;;;5.80;;
2618;SDS011;1319;52.346;13.096;2022-08-03T01:04:05;6.90;;;5.77;;
2618;SDS011;1319;52.346;13.096;2022-08-03T01:09:15;9.60;;;6.13;;
2618;SDS011;1319;52.346;13.096;2022-08-03T01:14:10;13.17;;;6.23;;
2618;SDS011;1319;52.346;13.096;2022-08-03T01:16:43;9.00;;;5.93;;
2618;SDS011;1319;52.346;13.096;2022-08-03T01:19:30;9.23;;;6.00;;
2618;SDS011;1319;52.346;13.096;2022-08-03T01:24:34;7.90;;;6.37;;
2618;SDS011;1319;52.346;13.096;2022-08-03T01:27:06;8.13;;;6.30;;
2618;SDS011;1319;52.346;13.096;2022-08-03T01:32:08;10.53;;;6.27;;
2618;SDS011;1319;52.346;13.096;2022-08-03T01:34:35;7.80;;;6.70;;
2618;SDS011;1319;52.346;13.096;2022-08-03T01:37:05;10.53;;;6.00;;
2618;SDS011;1319;52.346;13.096;2022-08-03T01:39:31;7.80;;;5.90;;
2618;SDS011;1319;52.346;13.096;2022-08-03T01:42:00;8.07;;;5.97;;
2618;SDS011;1319;52.346;13.096;2022-08-03T01:44:30;7.63;;;6.37;;
2618;SDS011;1319;52.346;13.096;2022-08-03T01:46:58;7.13;;;5.90;;
2618;SDS011;1319;52.346;13.096;2022-08-03T01:49:24;8.37;;;6.37;;
2618;SDS011;1319;52.346;13.096;2022-08-03T01:51:49;7.20;;;6.50;;
2618;SDS011;1319;52.346;13.096;2022-08-03T01:54:15;13.10;;;5.90;;
2618;SDS011;1319;52.346;13.096;2022-08-03T01:56:41;9.60;;;5.87;;
2618;SDS011;1319;52.346;13.096;2022-08-03T01:59:07;8.43;;;6.37;;
2618;SDS011;1319;52.346;13.096;2022-08-03T02:01:32;7.93;;;5.93;;
2618;SDS011;1319;52.346;13.096;2022-08-03T02:03:59;8.60;;;6.43;;
2618;SDS011;1319;52.346;13.096;2022-08-03T02:06:24;8.57;;;6.03;;
2618;SDS011;1319;52.346;13.096;2022-08-03T02:08:50;9.73;;;5.93;;
2618;SDS011;1319;52.346;13.096;2022-08-03T02:11:16;15.27;;;6.93;;
2618;SDS011;1319;52.346;13.096;2022-08-03T02:13:41;9.20;;;6.70;;
2618;SDS011;1319;52.346;13.096;2022-08-03T02:16:07;12.17;;;6.33;;
2618;SDS011;1319;52.346;13.096;2022-08-03T02:18:33;9.80;;;6.57;;
2618;SDS011;1319;52.346;13.096;2022-08-03T02:21:02;9.83;;;6.67;;
2618;SDS011;1319;52.346;13.096;2022-08-03T02:23:28;10.60;;;6.97;;
2618;SDS011;1319;52.346;13.096;2022-08-03T02:25:56;8.07;;;6.90;;
2618;SDS011;1319;52.346;13.096;2022-08-03T02:28:24;11.67;;;6.77;;
2618;SDS011;1319;52.346;13.096;2022-08-03T02:30:52;10.50;;;7.17;;
2618;SDS011;1319;52.346;13.096;2022-08-03T02:33:19;9.43;;;6.83;;
2618;SDS011;1319;52.346;13.096;2022-08-03T02:35:46;12.40;;;7.10;;
2618;SDS011;1319;52.346;13.096;2022-08-03T02:38:12;11.07;;;7.03;;
2618;SDS011;1319;52.346;13.096;2022-08-03T02:40:39;7.80;;;7.00;;
2618;SDS011;1319;52.346;13.096;2022-08-03T02:43:06;10.77;;;6.97;;
2618;SDS011;1319;52.346;13.096;2022-08-03T02:45:34;9.67;;;6.87;;
2618;SDS011;1319;52.346;13.096;2022-08-03T02:48:02;7.87;;;7.07;;
2618;SDS011;1319;52.346;13.096;2022-08-03T02:50:28;7.10;;;6.37;;
2618;SDS011;1319;52.346;13.096;2022-08-03T02:52:54;10.83;;;7.10;;
2618;SDS011;1319;52.346;13.096;2022-08-03T02:55:20;8.83;;;6.83;;
2618;SDS011;1319;52.346;13.096;2022-08-03T02:57:46;12.63;;;7.40;;
2618;SDS011;1319;52.346;13.096;2022-08-03T03:00:12;10.07;;;6.70;;
2618;SDS011;1319;52.346;13.096;2022-08-03T03:02:38;9.60;;;7.20;;
2618;SDS011;1319;52.346;13.096;2022-08-03T03:05:04;12.97;;;7.23;;
2618;SDS011;1319;52.346;13.096;2022-08-03T03:07:30;7.30;;;6.53;;
2618;SDS011;1319;52.346;13.096;2022-08-03T03:09:55;10.10;;;6.90;;
2618;SDS011;1319;52.346;13.096;2022-08-03T03:12:20;10.23;;;7.17;;
2618;SDS011;1319;52.346;13.096;2022-08-03T03:14:46;11.03;;;6.63;;
2618;SDS011;1319;52.346;13.096;2022-08-03T03:17:11;8.03;;;6.57;;
2618;SDS011;1319;52.346;13.096;2022-08-03T03:19:38;14.83;;;7.10;;
2618;SDS011;1319;52.346;13.096;2022-08-03T03:22:06;10.23;;;6.47;;
2618;SDS011;1319;52.346;13.096;2022-08-03T03:24:32;9.40;;;6.70;;
2618;SDS011;1319;52.346;13.096;2022-08-03T03:26:58;11.47;;;6.40;;
2618;SDS011;1319;52.346;13.096;2022-08-03T03:29:24;12.10;;;6.30;;
2618;SDS011;1319;52.346;13.096;2022-08-03T03:31:49;9.50;;;6.30;;
2618;SDS011;1319;52.346;13.096;2022-08-03T03:34:14;8.00;;;6.40;;
2618;SDS011;1319;52.346;13.096;2022-08-03T03:36:40;8.40;;;7.30;;
2618;SDS011;1319;52.346;13.096;2022-08-03T03:39:05;9.50;;;6.87;;
2618;SDS011;1319;52.346;13.096;2022-08-03T03:41:30;9.03;;;6.43;;
2618;SDS011;1319;52.346;13.096;2022-08-03T03:43:56;8.60;;;6.60;;
2618;SDS011;1319;52.346;13.096;2022-08-03T03:46:21;9.87;;;7.07;;
2618;SDS011;1319;52.346;13.096;2022-08-03T03:48:46;8.47;;;6.47;;
2618;SDS011;1319;52.346;13.096;2022-08-03T03:51:12;10.40;;;7.03;;
2618;SDS011;1319;52.346;13.096;2022-08-03T03:53:37;10.53;;;6.63;;
2618;SDS011;1319;52.346;13.096;2022-08-03T03:56:02;11.87;;;7.20;;
2618;SDS011;1319;52.346;13.096;2022-08-03T03:58:28;11.03;;;7.30;;
2618;SDS011;1319;52.346;13.096;2022-08-03T04:00:53;9.20;;;6.83;;
2618;SDS011;1319;52.346;13.096;2022-08-03T04:03:19;13.80;;;7.57;;
2618;SDS011;1319;52.346;13.096;2022-08-03T04:05:44;13.37;;;7.50;;
2618;SDS011;1319;52.346;13.096;2022-08-03T04:08:28;10.57;;;7.60;;
2618;SDS011;1319;52.346;13.096;2022-08-03T04:11:13;12.27;;;7.40;;
2618;SDS011;1319;52.346;13.096;2022-08-03T04:14:23;10.67;;;7.40;;
2618;SDS011;1319;52.346;13.096;2022-08-03T04:16:36;11.60;;;7.57;;
2618;SDS011;1319;52.346;13.096;2022-08-03T04:19:02;10.40;;;7.47;;
2618;SDS011;1319;52.346;13.096;2022-08-03T04:21:30;8.80;;;7.50;;
2618;SDS011;1319;52.346;13.096;2022-08-03T04:24:00;14.80;;;7.63;;
2618;SDS011;1319;52.346;13.096;2022-08-03T04:26:26;8.13;;;7.30;;
2618;SDS011;1319;52.346;13.096;2022-08-03T04:28:52;11.17;;;7.50;;
2618;SDS011;1319;52.346;13.096;2022-08-03T04:31:19;10.23;;;7.50;;
2618;SDS011;1319;52.346;13.096;2022-08-03T04:33:45;10.17;;;7.63;;
2618;SDS011;1319;52.346;13.096;2022-08-03T04:36:11;17.43;;;8.10;;
2618;SDS011;1319;52.346;13.096;2022-08-03T04:38:39;13.73;;;7.60;;
2618;SDS011;1319;52.346;13.096;2022-08-03T04:41:08;16.23;;;7.73;;
2618;SDS011;1319;52.346;13.096;2022-08-03T04:43:33;13.77;;;8.03;;
2618;SDS011;1319;52.346;13.096;2022-08-03T04:45:59;10.57;;;7.87;;
2618;SDS011;1319;52.346;13.096;2022-08-03T04:48:24;14.40;;;7.93;;
2618;SDS011;1319;52.346;13.096;2022-08-03T04:50:50;11.33;;;8.63;;
2618;SDS011;1319;52.346;13.096;2022-08-03T04:53:15;13.57;;;8.37;;
2618;SDS011;1319;52.346;13.096;2022-08-03T04:55:42;14.90;;;8.50;;
2618;SDS011;1319;52.346;13.096;2022-08-03T04:58:07;13.07;;;8.10;;
2618;SDS011;1319;52.346;13.096;2022-08-03T05:00:32;13.90;;;8.47;;
2618;SDS011;1319;52.346;13.096;2022-08-03T05:02:57;12.30;;;8.30;;
2618;SDS011;1319;52.346;13.096;2022-08-03T05:05:23;8.63;;;7.67;;
2618;SDS011;1319;52.346;13.096;2022-08-03T05:07:48;10.23;;;7.47;;
2618;SDS011;1319;52.346;13.096;2022-08-03T05:10:14;12.87;;;7.50;;
2618;SDS011;1319;52.346;13.096;2022-08-03T05:12:39;11.63;;;7.80;;
2618;SDS011;1319;52.346;13.096;2022-08-03T05:15:05;9.50;;;7.90;;
2618;SDS011;1319;52.346;13.096;2022-08-03T05:17:30;17.53;;;8.07;;
2618;SDS011;1319;52.346;13.096;2022-08-03T05:19:55;12.53;;;7.63;;
2618;SDS011;1319;52.346;13.096;2022-08-03T05:22:21;15.43;;;7.73;;
2618;SDS011;1319;52.346;13.096;2022-08-03T05:24:46;11.20;;;6.37;;
2618;SDS011;1319;52.346;13.096;2022-08-03T05:27:12;8.53;;;6.23;;
2618;SDS011;1319;52.346;13.096;2022-08-03T05:29:43;6.87;;;5.73;;
2618;SDS011;1319;52.346;13.096;2022-08-03T05:32:08;11.93;;;5.67;;
2618;SDS011;1319;52.346;13.096;2022-08-03T05:34:33;8.33;;;4.60;;
2618;SDS011;1319;52.346;13.096;2022-08-03T05:36:58;9.33;;;4.50;;
2618;SDS011;1319;52.346;13.096;2022-08-03T05:39:24;7.13;;;4.53;;
2618;SDS011;1319;52.346;13.096;2022-08-03T05:41:49;11.43;;;4.83;;
2618;SDS011;1319;52.346;13.096;2022-08-03T05:44:14;7.50;;;4.90;;
2618;SDS011;1319;52.346;13.096;2022-08-03T05:46:39;5.20;;;4.37;;
2618;SDS011;1319;52.346;13.096;2022-08-03T05:49:04;8.67;;;4.40;;
2618;SDS011;1319;52.346;13.096;2022-08-03T05:51:30;7.47;;;4.20;;
2618;SDS011;1319;52.346;13.096;2022-08-03T05:53:55;6.27;;;4.17;;
2618;SDS011;1319;52.346;13.096;2022-08-03T05:56:21;7.20;;;3.90;;
2618;SDS011;1319;52.346;13.096;2022-08-03T05:58:47;5.40;;;3.70;;
2618;SDS011;1319;52.346;13.096;2022-08-03T06:01:13;4.17;;;3.87;;
2618;SDS011;1319;52.346;13.096;2022-08-03T06:03:38;8.27;;;4.10;;
2618;SDS011;1319;52.346;13.096;2022-08-03T06:06:03;8.00;;;4.67;;
2618;SDS011;1319;52.346;13.096;2022-08-03T06:08:29;7.33;;;3.80;;
2618;SDS011;1319;52.346;13.096;2022-08-03T06:10:54;9.93;;;3.60;;
2618;SDS011;1319;52.346;13.096;2022-08-03T06:13:19;10.63;;;3.63;;
2618;SDS011;1319;52.346;13.096;2022-08-03T06:15:45;9.63;;;3.63;;
2618;SDS011;1319;52.346;13.096;2022-08-03T06:18:11;7.97;;;3.30;;
2618;SDS011;1319;52.346;13.096;2022-08-03T06:20:36;11.83;;;3.43;;
2618;SDS011;1319;52.346;13.096;2022-08-03T06:23:01;8.40;;;3.40;;
2618;SDS011;1319;52.346;13.096;2022-08-03T06:25:26;8.97;;;3.17;;
2618;SDS011;1319;52.346;13.096;2022-08-03T06:27:52;9.23;;;3.50;;
2618;SDS011;1319;52.346;13.096;2022-08-03T06:30:18;4.47;;;2.90;;
2618;SDS011;1319;52.346;13.096;2022-08-03T06:32:43;8.50;;;3.10;;
2618;SDS011;1319;52.346;13.096;2022-08-03T06:35:09;10.30;;;3.27;;
2618;SDS011;1319;52.346;13.096;2022-08-03T06:37:45;6.17;;;2.67;;
2618;SDS011;1319;52.346;13.096;2022-08-03T06:40:11;4.07;;;2.83;;
2618;SDS011;1319;52.346;13.096;2022-08-03T06:42:36;5.83;;;3.10;;
2618;SDS011;1319;52.346;13.096;2022-08-03T06:45:02;4.67;;;2.70;;
2618;SDS011;1319;52.346;13.096;2022-08-03T06:47:28;5.33;;;2.93;;
2618;SDS011;1319;52.346;13.096;2022-08-03T06:49:53;8.77;;;2.93;;
2618;SDS011;1319;52.346;13.096;2022-08-03T06:52:18;3.67;;;2.20;;
2618;SDS011;1319;52.346;13.096;2022-08-03T06:54:43;3.33;;;2.53;;
2618;SDS011;1319;52.346;13.096;2022-08-03T06:57:08;5.37;;;2.30;;
2618;SDS011;1319;52.346;13.096;2022-08-03T06:59:35;3.97;;;2.10;;
2618;SDS011;1319;52.346;13.096;2022-08-03T07:02:00;6.10;;;2.47;;
2618;SDS011;1319;52.346;13.096;2022-08-03T07:04:26;3.00;;;2.10;;
2618;SDS011;1319;52.346;13.096;2022-08-03T07:06:51;2.87;;;2.30;;
2618;SDS011;1319;52.346;13.096;2022-08-03T07:09:16;4.03;;;2.17;;
2618;SDS011;1319;52.346;13.096;2022-08-03T07:11:41;2.57;;;2.10;;
2618;SDS011;1319;52.346;13.096;2022-08-03T07:14:06;4.53;;;2.27;;
2618;SDS011;1319;52.346;13.096;2022-08-03T07:16:32;3.40;;;2.07;;
2618;SDS011;1319;52.346;13.096;2022-08-03T07:18:57;5.37;;;2.03;;
2618;SDS011;1319;52.346;13.096;2022-08-03T07:21:22;3.70;;;2.10;;
2618;SDS011;1319;52.346;13.096;2022-08-03T07:23:48;3.00;;;2.20;;
2618;SDS011;1319;52.346;13.096;2022-08-03T07:26:13;2.70;;;2.17;;
2618;SDS011;1319;52.346;13.096;2022-08-03T07:28:38;6.37;;;2.40;;
2618;SDS011;1319;52.346;13.096;2022-08-03T07:31:04;3.80;;;2.40;;
2618;SDS011;1319;52.346;13.096;2022-08-03T07:33:29;3.60;;;2.40;;
2618;SDS011;1319;52.346;13.096;2022-08-03T07:35:54;3.63;;;2.40;;
2618;SDS011;1319;52.346;13.096;2022-08-03T07:38:19;2.50;;;2.30;;
2618;SDS011;1319;52.346;13.096;2022-08-03T07:40:44;7.15;;;2.25;;
2618;SDS011;1319;52.346;13.096;2022-08-03T07:43:10;4.68;;;2.22;;
2618;SDS011;1319;52.346;13.096;2022-08-03T07:45:35;4.32;;;2.13;;
2618;SDS011;1319;52.346;13.096;2022-08-03T07:48:00;2.50;;;2.30;;
2618;SDS011;1319;52.346;13.096;2022-08-03T07:50:25;2.42;;;2.20;;
2618;SDS011;1319;52.346;13.096;2022-08-03T07:52:51;2.60;;;2.20;;
2618;SDS011;1319;52.346;13.096;2022-08-03T07:55:18;2.55;;;2.35;;
2618;SDS011;1319;52.346;13.096;2022-08-03T07:57:43;6.88;;;2.33;;
2618;SDS011;1319;52.346;13.096;2022-08-03T08:00:15;2.70;;;2.22;;
2618;SDS011;1319;52.346;13.096;2022-08-03T08:02:41;3.00;;;2.20;;
2618;SDS011;1319;52.346;13.096;2022-08-03T08:05:06;3.67;;;2.28;;
2618;SDS011;1319;52.346;13.096;2022-08-03T08:07:32;3.53;;;2.30;;
2618;SDS011;1319;52.346;13.096;2022-08-03T08:09:57;3.55;;;2.20;;
2618;SDS011;1319;52.346;13.096;2022-08-03T08:12:22;4.40;;;2.17;;
2618;SDS011;1319;52.346;13.096;2022-08-03T08:14:47;4.90;;;2.17;;
2618;SDS011;1319;52.346;13.096;2022-08-03T08:17:13;8.93;;;2.35;;
2618;SDS011;1319;52.346;13.096;2022-08-03T08:19:38;3.58;;;1.90;;
2618;SDS011;1319;52.346;13.096;2022-08-03T08:22:03;2.20;;;2.03;;
2618;SDS011;1319;52.346;13.096;2022-08-03T08:24:29;3.30;;;2.17;;
2618;SDS011;1319;52.346;13.096;2022-08-03T08:26:55;2.35;;;2.22;;
2618;SDS011;1319;52.346;13.096;2022-08-03T08:29:20;2.08;;;1.98;;
2618;SDS011;1319;52.346;13.096;2022-08-03T08:31:47;7.50;;;2.50;;
2618;SDS011;1319;52.346;13.096;2022-08-03T08:34:12;6.88;;;2.08;;
2618;SDS011;1319;52.346;13.096;2022-08-03T08:36:37;4.68;;;2.40;;
2618;SDS011;1319;52.346;13.096;2022-08-03T08:39:03;5.35;;;2.00;;
2618;SDS011;1319;52.346;13.096;2022-08-03T08:41:28;4.75;;;2.40;;
2618;SDS011;1319;52.346;13.096;2022-08-03T08:43:53;2.17;;;2.00;;
2618;SDS011;1319;52.346;13.096;2022-08-03T08:46:19;5.97;;;1.90;;
2618;SDS011;1319;52.346;13.096;2022-08-03T08:48:44;1.95;;;1.85;;
2618;SDS011;1319;52.346;13.096;2022-08-03T08:51:11;3.35;;;1.85;;
2618;SDS011;1319;52.346;13.096;2022-08-03T08:53:36;3.25;;;2.17;;
2618;SDS011;1319;52.346;13.096;2022-08-03T08:56:04;4.38;;;2.10;;
2618;SDS011;1319;52.346;13.096;2022-08-03T08:58:36;2.10;;;1.90;;
2618;SDS011;1319;52.346;13.096;2022-08-03T09:01:01;2.15;;;2.05;;
2618;SDS011;1319;52.346;13.096;2022-08-03T09:03:27;2.30;;;2.10;;
2618;SDS011;1319;52.346;13.096;2022-08-03T09:05:52;2.72;;;1.77;;
2618;SDS011;1319;52.346;13.096;2022-08-03T09:08:17;2.63;;;2.00;;
2618;SDS011;1319;52.346;13.096;2022-08-03T09:10:43;2.13;;;1.92;;
2618;SDS011;1319;52.346;13.096;2022-08-03T09:13:08;4.22;;;2.05;;
2618;SDS011;1319;52.346;13.096;2022-08-03T09:15:33;2.00;;;1.90;;
2618;SDS011;1319;52.346;13.096;2022-08-03T09:17:59;6.13;;;2.15;;
2618;SDS011;1319;52.346;13.096;2022-08-03T09:20:25;2.10;;;2.00;;
2618;SDS011;1319;52.346;13.096;2022-08-03T09:25:41;2.40;;;1.98;;
2618;SDS011;1319;52.346;13.096;2022-08-03T09:30:35;4.25;;;2.13;;
2618;SDS011;1319;52.346;13.096;2022-08-03T09:33:01;2.47;;;2.10;;
2618;SDS011;1319;52.346;13.096;2022-08-03T09:35:27;3.17;;;2.03;;
2618;SDS011;1319;52.346;13.096;2022-08-03T09:38:10;2.42;;;1.83;;
2618;SDS011;1319;52.346;13.096;2022-08-03T09:40:35;2.33;;;2.10;;
2618;SDS011;1319;52.346;13.096;2022-08-03T09:43:01;5.57;;;1.90;;
2618;SDS011;1319;52.346;13.096;2022-08-03T09:45:26;3.35;;;1.90;;
2618;SDS011;1319;52.346;13.096;2022-08-03T09:47:52;1.90;;;1.80;;
2618;SDS011;1319;52.346;13.096;2022-08-03T09:50:17;3.22;;;2.05;;
2618;SDS011;1319;52.346;13.096;2022-08-03T09:52:42;3.75;;;1.90;;
2618;SDS011;1319;52.346;13.096;2022-08-03T09:55:12;4.50;;;1.90;;
2618;SDS011;1319;52.346;13.096;2022-08-03T09:57:38;2.10;;;1.95;;
2618;SDS011;1319;52.346;13.096;2022-08-03T10:00:11;6.15;;;2.03;;
2618;SDS011;1319;52.346;13.096;2022-08-03T10:02:37;1.88;;;1.77;;
2618;SDS011;1319;52.346;13.096;2022-08-03T10:05:03;5.22;;;1.92;;
2618;SDS011;1319;52.346;13.096;2022-08-03T10:07:29;4.72;;;1.98;;
2618;SDS011;1319;52.346;13.096;2022-08-03T10:09:58;5.18;;;1.98;;
2618;SDS011;1319;52.346;13.096;2022-08-03T10:12:24;2.50;;;1.95;;
2618;SDS011;1319;52.346;13.096;2022-08-03T10:14:50;1.70;;;1.60;;
2618;SDS011;1319;52.346;13.096;2022-08-03T10:17:16;2.90;;;1.73;;
2618;SDS011;1319;52.346;13.096;2022-08-03T10:19:41;2.30;;;2.10;;
2618;SDS011;1319;52.346;13.096;2022-08-03T10:22:09;2.28;;;2.03;;
2618;SDS011;1319;52.346;13.096;2022-08-03T10:24:36;4.20;;;2.17;;
2618;SDS011;1319;52.346;13.096;2022-08-03T10:27:04;6.80;;;2.60;;
2618;SDS011;1319;52.346;13.096;2022-08-03T10:29:33;2.15;;;1.92;;
2618;SDS011;1319;52.346;13.096;2022-08-03T10:32:00;3.22;;;2.25;;
2618;SDS011;1319;52.346;13.096;2022-08-03T10:34:30;2.95;;;2.10;;
2618;SDS011;1319;52.346;13.096;2022-08-03T10:36:58;2.10;;;2.00;;
2618;SDS011;1319;52.346;13.096;2022-08-03T10:39:25;2.03;;;1.95;;
2618;SDS011;1319;52.346;13.096;2022-08-03T10:41:51;3.53;;;1.90;;
2618;SDS011;1319;52.346;13.096;2022-08-03T10:44:19;6.43;;;2.17;;
2618;SDS011;1319;52.346;13.096;2022-08-03T10:46:45;2.47;;;2.00;;
2618;SDS011;1319;52.346;13.096;2022-08-03T10:49:12;3.10;;;2.00;;
2618;SDS011;1319;52.346;13.096;2022-08-03T10:51:37;2.15;;;2.05;;
2618;SDS011;1319;52.346;13.096;2022-08-03T10:54:03;7.38;;;1.90;;
2618;SDS011;1319;52.346;13.096;2022-08-03T10:59:15;2.30;;;2.10;;
2618;SDS011;1319;52.346;13.096;2022-08-03T11:04:16;2.90;;;1.98;;
2618;SDS011;1319;52.346;13.096;2022-08-03T11:06:41;2.17;;;2.00;;
2618;SDS011;1319;52.346;13.096;2022-08-03T11:11:36;2.15;;;2.05;;
2618;SDS011;1319;52.346;13.096;2022-08-03T11:14:12;4.80;;;2.28;;
2618;SDS011;1319;52.346;13.096;2022-08-03T11:16:39;2.08;;;1.92;;
2618;SDS011;1319;52.346;13.096;2022-08-03T11:19:08;2.88;;;2.08;;
2618;SDS011;1319;52.346;13.096;2022-08-03T11:24:41;2.35;;;1.80;;
2618;SDS011;1319;52.346;13.096;2022-08-03T11:35:11;2.28;;;2.08;;
2618;SDS011;1319;52.346;13.096;2022-08-03T11:38:22;4.57;;;2.28;;
2618;SDS011;1319;52.346;13.096;2022-08-03T11:42:59;6.18;;;2.30;;
2618;SDS011;1319;52.346;13.096;2022-08-03T11:45:25;2.83;;;2.03;;
2618;SDS011;1319;52.346;13.096;2022-08-03T11:47:52;2.53;;;2.20;;
2618;SDS011;1319;52.346;13.096;2022-08-03T11:50:18;2.22;;;2.13;;
2618;SDS011;1319;52.346;13.096;2022-08-03T11:52:43;2.20;;;2.00;;
2618;SDS011;1319;52.346;13.096;2022-08-03T11:55:09;1.90;;;1.80;;
2618;SDS011;1319;52.346;13.096;2022-08-03T11:57:35;2.00;;;1.90;;
2618;SDS011;1319;52.346;13.096;2022-08-03T12:00:00;2.20;;;2.10;;
2618;SDS011;1319;52.346;13.096;2022-08-03T12:02:26;3.35;;;1.95;;
2618;SDS011;1319;52.346;13.096;2022-08-03T12:04:52;2.28;;;2.10;;
2618;SDS011;1319;52.346;13.096;2022-08-03T12:07:18;4.85;;;1.90;;
2618;SDS011;1319;52.346;13.096;2022-08-03T12:09:43;4.20;;;1.92;;
2618;SDS011;1319;52.346;13.096;2022-08-03T12:12:25;2.10;;;2.00;;
2618;SDS011;1319;52.346;13.096;2022-08-03T12:14:51;3.47;;;2.10;;
2618;SDS011;1319;52.346;13.096;2022-08-03T12:17:16;3.95;;;2.10;;
2618;SDS011;1319;52.346;13.096;2022-08-03T12:19:42;2.08;;;2.05;;
2618;SDS011;1319;52.346;13.096;2022-08-03T12:22:07;1.88;;;1.70;;
2618;SDS011;1319;52.346;13.096;2022-08-03T12:24:39;3.22;;;2.13;;
2618;SDS011;1319;52.346;13.096;2022-08-03T12:27:04;2.85;;;2.00;;
2618;SDS011;1319;52.346;13.096;2022-08-03T12:29:29;4.88;;;2.42;;
2618;SDS011;1319;52.346;13.096;2022-08-03T12:31:54;2.95;;;2.10;;
2618;SDS011;1319;52.346;13.096;2022-08-03T12:34:20;2.30;;;2.00;;
2618;SDS011;1319;52.346;13.096;2022-08-03T12:36:55;5.90;;;1.92;;
2618;SDS011;1319;52.346;13.096;2022-08-03T12:39:24;3.45;;;1.90;;
2618;SDS011;1319;52.346;13.096;2022-08-03T12:41:52;3.20;;;2.08;;
2618;SDS011;1319;52.346;13.096;2022-08-03T12:44:17;1.90;;;1.80;;
2618;SDS011;1319;52.346;13.096;2022-08-03T12:46:42;2.22;;;1.70;;
2618;SDS011;1319;52.346;13.096;2022-08-03T12:49:12;1.67;;;1.67;;
2618;SDS011;1319;52.346;13.096;2022-08-03T12:54:07;2.15;;;1.90;;
2618;SDS011;1319;52.346;13.096;2022-08-03T12:56:33;2.70;;;2.00;;
2618;SDS011;1319;52.346;13.096;2022-08-03T12:58:58;1.73;;;1.63;;
2618;SDS011;1319;52.346;13.096;2022-08-03T13:01:24;3.08;;;1.73;;
2618;SDS011;1319;52.346;13.096;2022-08-03T13:03:51;2.05;;;1.90;;
2618;SDS011;1319;52.346;13.096;2022-08-03T13:06:19;2.95;;;1.90;;
2618;SDS011;1319;52.346;13.096;2022-08-03T13:08:45;3.75;;;1.80;;
2618;SDS011;1319;52.346;13.096;2022-08-03T13:11:22;4.13;;;2.00;;
2618;SDS011;1319;52.346;13.096;2022-08-03T13:13:48;2.00;;;1.90;;
2618;SDS011;1319;52.346;13.096;2022-08-03T13:16:13;3.45;;;1.90;;
2618;SDS011;1319;52.346;13.096;2022-08-03T13:18:39;2.85;;;1.70;;
2618;SDS011;1319;52.346;13.096;2022-08-03T13:21:04;2.22;;;1.73;;
2618;SDS011;1319;52.346;13.096;2022-08-03T13:23:30;2.90;;;1.80;;
2618;SDS011;1319;52.346;13.096;2022-08-03T13:25:55;4.80;;;1.88;;
2618;SDS011;1319;52.346;13.096;2022-08-03T13:28:20;2.10;;;1.70;;
2618;SDS011;1319;52.346;13.096;2022-08-03T13:30:46;2.28;;;2.17;;
2618;SDS011;1319;52.346;13.096;2022-08-03T13:33:11;3.70;;;2.35;;
2618;SDS011;1319;52.346;13.096;2022-08-03T13:35:36;2.30;;;1.92;;
2618;SDS011;1319;52.346;13.096;2022-08-03T13:38:01;2.85;;;2.00;;
2618;SDS011;1319;52.346;13.096;2022-08-03T13:40:26;2.17;;;2.05;;
2618;SDS011;1319;52.346;13.096;2022-08-03T13:42:52;4.53;;;2.90;;
2618;SDS011;1319;52.346;13.096;2022-08-03T13:45:17;3.55;;;2.38;;
2618;SDS011;1319;52.346;13.096;2022-08-03T13:47:42;3.83;;;1.92;;
2618;SDS011;1319;52.346;13.096;2022-08-03T13:50:07;3.70;;;2.42;;
2618;SDS011;1319;52.346;13.096;2022-08-03T13:52:33;4.47;;;2.10;;
2618;SDS011;1319;52.346;13.096;2022-08-03T13:55:00;2.47;;;2.10;;
2618;SDS011;1319;52.346;13.096;2022-08-03T13:57:25;3.65;;;2.67;;
2618;SDS011;1319;52.346;13.096;2022-08-03T13:59:51;3.85;;;2.38;;
2618;SDS011;1319;52.346;13.096;2022-08-03T14:02:16;4.25;;;2.22;;
2618;SDS011;1319;52.346;13.096;2022-08-03T14:04:41;8.77;;;2.92;;
2618;SDS011;1319;52.346;13.096;2022-08-03T14:07:06;5.70;;;2.22;;
2618;SDS011;1319;52.346;13.096;2022-08-03T14:09:31;3.35;;;2.00;;
2618;SDS011;1319;52.346;13.096;2022-08-03T14:11:57;2.58;;;2.15;;
2618;SDS011;1319;52.346;13.096;2022-08-03T14:14:22;2.13;;;2.03;;
2618;SDS011;1319;52.346;13.096;2022-08-03T14:16:47;4.10;;;2.20;;
2618;SDS011;1319;52.346;13.096;2022-08-03T14:19:12;2.17;;;1.95;;
2618;SDS011;1319;52.346;13.096;2022-08-03T14:21:39;6.13;;;2.47;;
2618;SDS011;1319;52.346;13.096;2022-08-03T14:24:05;9.13;;;2.78;;
2618;SDS011;1319;52.346;13.096;2022-08-03T14:26:30;3.35;;;1.98;;
2618;SDS011;1319;52.346;13.096;2022-08-03T14:28:55;7.65;;;3.15;;
2618;SDS011;1319;52.346;13.096;2022-08-03T14:31:20;3.50;;;2.00;;
2618;SDS011;1319;52.346;13.096;2022-08-03T14:33:47;2.88;;;2.17;;
2618;SDS011;1319;52.346;13.096;2022-08-03T14:36:12;5.60;;;2.95;;
2618;SDS011;1319;52.346;13.096;2022-08-03T14:38:38;2.70;;;2.50;;
2618;SDS011;1319;52.346;13.096;2022-08-03T14:41:03;6.18;;;2.45;;
2618;SDS011;1319;52.346;13.096;2022-08-03T14:43:28;4.53;;;2.00;;
2618;SDS011;1319;52.346;13.096;2022-08-03T14:45:53;1.85;;;1.75;;
2618;SDS011;1319;52.346;13.096;2022-08-03T14:48:19;5.07;;;2.45;;
2618;SDS011;1319;52.346;13.096;2022-08-03T14:50:44;2.00;;;1.90;;
2618;SDS011;1319;52.346;13.096;2022-08-03T14:53:09;3.10;;;2.10;;
2618;SDS011;1319;52.346;13.096;2022-08-03T14:55:35;2.80;;;1.80;;
2618;SDS011;1319;52.346;13.096;2022-08-03T14:58:00;4.93;;;2.10;;
2618;SDS011;1319;52.346;13.096;2022-08-03T15:00:29;2.78;;;2.10;;
2618;SDS011;1319;52.346;13.096;2022-08-03T15:02:54;5.97;;;2.08;;
2618;SDS011;1319;52.346;13.096;2022-08-03T15:05:20;1.90;;;1.77;;
2618;SDS011;1319;52.346;13.096;2022-08-03T15:07:45;4.60;;;1.65;;
2618;SDS011;1319;52.346;13.096;2022-08-03T15:10:10;2.80;;;1.77;;
2618;SDS011;1319;52.346;13.096;2022-08-03T15:12:35;1.90;;;1.80;;
2618;SDS011;1319;52.346;13.096;2022-08-03T15:15:00;2.30;;;1.65;;
2618;SDS011;1319;52.346;13.096;2022-08-03T15:17:26;1.90;;;1.80;;
2618;SDS011;1319;52.346;13.096;2022-08-03T15:19:51;4.78;;;2.00;;
2618;SDS011;1319;52.346;13.096;2022-08-03T15:22:16;2.38;;;1.80;;
2618;SDS011;1319;52.346;13.096;2022-08-03T15:24:43;2.95;;;1.90;;
2618;SDS011;1319;52.346;13.096;2022-08-03T15:27:08;1.65;;;1.55;;
2618;SDS011;1319;52.346;13.096;2022-08-03T15:29:33;1.98;;;1.88;;
2618;SDS011;1319;52.346;13.096;2022-08-03T15:31:58;7.15;;;1.90;;